sensor_id;sensor_type;location;lat;lon;timestamp;P1;durP1;ratioP1;P2;durP2;ratioP2
20476;SDS011;10397;50.948;11.092;2023-06-22T00:00:12;3.67;;;3.30;;
20476;SDS011;10397;50.948;11.092;2023-06-22T00:02:43;3.77;;;3.47;;
20476;SDS011;10397;50.948;11.092;2023-06-22T00:05:14;3.80;;;3.33;;
20476;SDS011;10397;50.948;11.092;2023-06-22T00:07:46;3.90;;;3.50;;
20476;SDS011;10397;50.948;11.092;2023-06-22T00:10:17;4.00;;;3.15;;
20476;SDS011;10397;50.948;11.092;2023-06-22T00:12:49;3.33;;;3.02;;
20476;SDS011;10397;50.948;11.092;2023-06-22T00:15:20;3.45;;;3.15;;
20476;SDS011;10397;50.948;11.092;2023-06-22T00:17:52;3.52;;;3.22;;
20476;SDS011;10397;50.948;11.092;2023-06-22T00:20:23;3.50;;;3.20;;
20476;SDS011;10397;50.948;11.092;2023-06-22T00:22:57;3.60;;;2.80;;
20476;SDS011;10397;50.948;11.092;2023-06-22T00:25:28;3.55;;;3.25;;
20476;SDS011;10397;50.948;11.092;2023-06-22T00:27:59;3.02;;;2.72;;
20476;SDS011;10397;50.948;11.092;2023-06-22T00:30:31;3.65;;;3.35;;
20476;SDS011;10397;50.948;11.092;2023-06-22T00:33:01;3.37;;;3.08;;
20476;SDS011;10397;50.948;11.092;2023-06-22T00:35:32;3.43;;;3.13;;
20476;SDS011;10397;50.948;11.092;2023-06-22T00:38:03;3.73;;;3.43;;
20476;SDS011;10397;50.948;11.092;2023-06-22T00:40:34;3.27;;;2.80;;
20476;SDS011;10397;50.948;11.092;2023-06-22T00:43:05;4.85;;;2.80;;
20476;SDS011;10397;50.948;11.092;2023-06-22T00:45:36;3.52;;;3.22;;
20476;SDS011;10397;50.948;11.092;2023-06-22T00:48:07;3.50;;;3.20;;
20476;SDS011;10397;50.948;11.092;2023-06-22T00:50:38;3.95;;;3.10;;
20476;SDS011;10397;50.948;11.092;2023-06-22T00:53:10;3.67;;;3.22;;
20476;SDS011;10397;50.948;11.092;2023-06-22T00:55:41;7.03;;;3.20;;
20476;SDS011;10397;50.948;11.092;2023-06-22T00:58:12;3.53;;;3.23;;
20476;SDS011;10397;50.948;11.092;2023-06-22T01:00:43;4.08;;;3.67;;
20476;SDS011;10397;50.948;11.092;2023-06-22T01:03:14;3.35;;;2.98;;
20476;SDS011;10397;50.948;11.092;2023-06-22T01:05:45;3.42;;;3.12;;
20476;SDS011;10397;50.948;11.092;2023-06-22T01:08:20;4.30;;;3.10;;
20476;SDS011;10397;50.948;11.092;2023-06-22T01:14:02;4.33;;;3.83;;
20476;SDS011;10397;50.948;11.092;2023-06-22T01:16:31;4.70;;;2.90;;
20476;SDS011;10397;50.948;11.092;2023-06-22T01:19:06;4.03;;;3.62;;
20476;SDS011;10397;50.948;11.092;2023-06-22T01:21:35;4.20;;;3.90;;
20476;SDS011;10397;50.948;11.092;2023-06-22T01:26:54;3.70;;;3.40;;
20476;SDS011;10397;50.948;11.092;2023-06-22T01:29:33;4.27;;;3.23;;
20476;SDS011;10397;50.948;11.092;2023-06-22T01:32:05;4.15;;;3.85;;
20476;SDS011;10397;50.948;11.092;2023-06-22T01:34:35;4.07;;;3.77;;
20476;SDS011;10397;50.948;11.092;2023-06-22T01:37:06;4.72;;;3.45;;
20476;SDS011;10397;50.948;11.092;2023-06-22T01:39:38;3.80;;;3.50;;
20476;SDS011;10397;50.948;11.092;2023-06-22T01:42:09;4.03;;;3.65;;
20476;SDS011;10397;50.948;11.092;2023-06-22T01:44:40;10.08;;;4.22;;
20476;SDS011;10397;50.948;11.092;2023-06-22T01:47:11;4.37;;;3.27;;
20476;SDS011;10397;50.948;11.092;2023-06-22T01:49:43;3.57;;;3.20;;
20476;SDS011;10397;50.948;11.092;2023-06-22T01:52:14;4.35;;;3.65;;
20476;SDS011;10397;50.948;11.092;2023-06-22T01:54:45;3.90;;;3.60;;
20476;SDS011;10397;50.948;11.092;2023-06-22T01:57:16;4.90;;;3.65;;
20476;SDS011;10397;50.948;11.092;2023-06-22T01:59:53;7.10;;;3.95;;
20476;SDS011;10397;50.948;11.092;2023-06-22T02:02:29;4.20;;;3.80;;
20476;SDS011;10397;50.948;11.092;2023-06-22T02:04:59;4.92;;;3.83;;
20476;SDS011;10397;50.948;11.092;2023-06-22T02:07:31;4.20;;;3.83;;
20476;SDS011;10397;50.948;11.092;2023-06-22T02:10:01;4.20;;;3.90;;
20476;SDS011;10397;50.948;11.092;2023-06-22T02:12:32;6.37;;;5.33;;
20476;SDS011;10397;50.948;11.092;2023-06-22T02:15:03;4.92;;;3.92;;
20476;SDS011;10397;50.948;11.092;2023-06-22T02:17:35;4.00;;;3.67;;
20476;SDS011;10397;50.948;11.092;2023-06-22T02:20:06;4.57;;;4.17;;
20476;SDS011;10397;50.948;11.092;2023-06-22T02:22:36;4.17;;;3.77;;
20476;SDS011;10397;50.948;11.092;2023-06-22T02:25:08;4.67;;;4.12;;
20476;SDS011;10397;50.948;11.092;2023-06-22T02:27:39;5.37;;;4.50;;
20476;SDS011;10397;50.948;11.092;2023-06-22T02:30:12;5.65;;;4.90;;
20476;SDS011;10397;50.948;11.092;2023-06-22T02:32:42;4.42;;;4.05;;
20476;SDS011;10397;50.948;11.092;2023-06-22T02:35:12;4.80;;;4.40;;
20476;SDS011;10397;50.948;11.092;2023-06-22T02:37:44;5.80;;;4.30;;
20476;SDS011;10397;50.948;11.092;2023-06-22T02:40:15;4.83;;;4.22;;
20476;SDS011;10397;50.948;11.092;2023-06-22T02:42:47;5.05;;;4.45;;
20476;SDS011;10397;50.948;11.092;2023-06-22T02:45:18;5.58;;;5.08;;
20476;SDS011;10397;50.948;11.092;2023-06-22T02:47:50;5.33;;;4.25;;
20476;SDS011;10397;50.948;11.092;2023-06-22T02:50:21;4.45;;;4.08;;
20476;SDS011;10397;50.948;11.092;2023-06-22T02:52:53;4.35;;;3.95;;
20476;SDS011;10397;50.948;11.092;2023-06-22T02:55:24;4.40;;;3.50;;
20476;SDS011;10397;50.948;11.092;2023-06-22T02:57:55;5.20;;;4.17;;
20476;SDS011;10397;50.948;11.092;2023-06-22T03:00:27;4.62;;;4.22;;
20476;SDS011;10397;50.948;11.092;2023-06-22T03:02:58;4.28;;;3.95;;
20476;SDS011;10397;50.948;11.092;2023-06-22T03:05:29;4.25;;;3.90;;
20476;SDS011;10397;50.948;11.092;2023-06-22T03:08:01;7.80;;;4.30;;
20476;SDS011;10397;50.948;11.092;2023-06-22T03:10:32;4.62;;;4.22;;
20476;SDS011;10397;50.948;11.092;2023-06-22T03:13:03;4.72;;;4.33;;
20476;SDS011;10397;50.948;11.092;2023-06-22T03:15:34;4.55;;;4.15;;
20476;SDS011;10397;50.948;11.092;2023-06-22T03:18:06;9.50;;;4.50;;
20476;SDS011;10397;50.948;11.092;2023-06-22T03:20:37;5.08;;;4.58;;
20476;SDS011;10397;50.948;11.092;2023-06-22T03:23:09;5.05;;;4.55;;
20476;SDS011;10397;50.948;11.092;2023-06-22T03:25:40;4.80;;;4.40;;
20476;SDS011;10397;50.948;11.092;2023-06-22T03:28:11;4.42;;;4.03;;
20476;SDS011;10397;50.948;11.092;2023-06-22T03:30:41;6.37;;;4.80;;
20476;SDS011;10397;50.948;11.092;2023-06-22T03:33:13;4.67;;;4.13;;
20476;SDS011;10397;50.948;11.092;2023-06-22T03:35:44;4.22;;;3.92;;
20476;SDS011;10397;50.948;11.092;2023-06-22T03:38:16;5.55;;;5.00;;
20476;SDS011;10397;50.948;11.092;2023-06-22T03:40:47;9.10;;;4.50;;
20476;SDS011;10397;50.948;11.092;2023-06-22T03:43:19;5.25;;;4.75;;
20476;SDS011;10397;50.948;11.092;2023-06-22T03:45:51;6.00;;;5.12;;
20476;SDS011;10397;50.948;11.092;2023-06-22T03:48:22;4.80;;;4.40;;
20476;SDS011;10397;50.948;11.092;2023-06-22T03:50:54;5.20;;;4.70;;
20476;SDS011;10397;50.948;11.092;2023-06-22T03:53:25;6.37;;;5.00;;
20476;SDS011;10397;50.948;11.092;2023-06-22T03:55:57;5.58;;;5.08;;
20476;SDS011;10397;50.948;11.092;2023-06-22T03:58:28;5.62;;;4.83;;
20476;SDS011;10397;50.948;11.092;2023-06-22T04:00:59;5.85;;;5.35;;
20476;SDS011;10397;50.948;11.092;2023-06-22T04:03:31;6.80;;;5.33;;
20476;SDS011;10397;50.948;11.092;2023-06-22T04:06:02;5.50;;;4.77;;
20476;SDS011;10397;50.948;11.092;2023-06-22T04:08:32;6.10;;;5.50;;
20476;SDS011;10397;50.948;11.092;2023-06-22T04:11:04;6.25;;;5.75;;
20476;SDS011;10397;50.948;11.092;2023-06-22T04:13:36;7.30;;;6.05;;
20476;SDS011;10397;50.948;11.092;2023-06-22T04:16:08;6.80;;;6.20;;
20476;SDS011;10397;50.948;11.092;2023-06-22T04:18:39;6.58;;;5.40;;
20476;SDS011;10397;50.948;11.092;2023-06-22T04:21:11;5.65;;;5.25;;
20476;SDS011;10397;50.948;11.092;2023-06-22T04:23:42;6.93;;;6.23;;
20476;SDS011;10397;50.948;11.092;2023-06-22T04:26:13;10.20;;;6.10;;
20476;SDS011;10397;50.948;11.092;2023-06-22T04:28:44;6.20;;;5.35;;
20476;SDS011;10397;50.948;11.092;2023-06-22T04:31:15;7.35;;;5.60;;
20476;SDS011;10397;50.948;11.092;2023-06-22T04:33:47;6.90;;;5.70;;
20476;SDS011;10397;50.948;11.092;2023-06-22T04:36:18;6.45;;;5.28;;
20476;SDS011;10397;50.948;11.092;2023-06-22T04:38:48;6.40;;;5.80;;
20476;SDS011;10397;50.948;11.092;2023-06-22T04:41:20;8.08;;;5.62;;
20476;SDS011;10397;50.948;11.092;2023-06-22T04:43:51;6.47;;;5.87;;
20476;SDS011;10397;50.948;11.092;2023-06-22T04:46:23;7.47;;;5.83;;
20476;SDS011;10397;50.948;11.092;2023-06-22T04:48:54;9.95;;;6.25;;
20476;SDS011;10397;50.948;11.092;2023-06-22T04:51:26;6.58;;;6.08;;
20476;SDS011;10397;50.948;11.092;2023-06-22T04:53:57;7.55;;;6.70;;
20476;SDS011;10397;50.948;11.092;2023-06-22T04:56:28;7.00;;;6.30;;
20476;SDS011;10397;50.948;11.092;2023-06-22T04:59:00;7.10;;;6.45;;
20476;SDS011;10397;50.948;11.092;2023-06-22T05:01:30;6.67;;;5.97;;
20476;SDS011;10397;50.948;11.092;2023-06-22T05:04:02;7.08;;;5.72;;
20476;SDS011;10397;50.948;11.092;2023-06-22T05:06:33;7.25;;;6.53;;
20476;SDS011;10397;50.948;11.092;2023-06-22T05:09:04;8.58;;;6.22;;
20476;SDS011;10397;50.948;11.092;2023-06-22T05:11:36;6.78;;;6.17;;
20476;SDS011;10397;50.948;11.092;2023-06-22T05:14:07;8.53;;;5.50;;
20476;SDS011;10397;50.948;11.092;2023-06-22T05:16:40;9.93;;;5.62;;
20476;SDS011;10397;50.948;11.092;2023-06-22T05:19:09;6.97;;;6.40;;
20476;SDS011;10397;50.948;11.092;2023-06-22T05:21:40;10.25;;;6.20;;
20476;SDS011;10397;50.948;11.092;2023-06-22T05:24:11;9.45;;;5.90;;
20476;SDS011;10397;50.948;11.092;2023-06-22T05:26:43;9.23;;;6.47;;
20476;SDS011;10397;50.948;11.092;2023-06-22T05:29:14;7.58;;;6.15;;
20476;SDS011;10397;50.948;11.092;2023-06-22T05:31:45;8.95;;;5.97;;
20476;SDS011;10397;50.948;11.092;2023-06-22T05:34:16;7.93;;;5.87;;
20476;SDS011;10397;50.948;11.092;2023-06-22T05:36:48;8.95;;;6.53;;
20476;SDS011;10397;50.948;11.092;2023-06-22T05:39:19;8.30;;;5.67;;
20476;SDS011;10397;50.948;11.092;2023-06-22T05:41:51;5.62;;;5.12;;
20476;SDS011;10397;50.948;11.092;2023-06-22T05:44:22;8.13;;;6.13;;
20476;SDS011;10397;50.948;11.092;2023-06-22T05:46:53;12.10;;;6.60;;
20476;SDS011;10397;50.948;11.092;2023-06-22T05:49:24;7.10;;;6.47;;
20476;SDS011;10397;50.948;11.092;2023-06-22T05:51:56;9.48;;;6.12;;
20476;SDS011;10397;50.948;11.092;2023-06-22T05:54:27;10.82;;;6.95;;
20476;SDS011;10397;50.948;11.092;2023-06-22T05:56:58;7.30;;;6.60;;
20476;SDS011;10397;50.948;11.092;2023-06-22T05:59:30;11.12;;;7.60;;
20476;SDS011;10397;50.948;11.092;2023-06-22T06:02:01;7.90;;;6.58;;
20476;SDS011;10397;50.948;11.092;2023-06-22T06:04:32;7.60;;;6.90;;
20476;SDS011;10397;50.948;11.092;2023-06-22T06:07:03;10.72;;;7.30;;
20476;SDS011;10397;50.948;11.092;2023-06-22T06:09:34;8.03;;;6.78;;
20476;SDS011;10397;50.948;11.092;2023-06-22T06:12:06;7.10;;;6.33;;
20476;SDS011;10397;50.948;11.092;2023-06-22T06:14:37;10.65;;;6.65;;
20476;SDS011;10397;50.948;11.092;2023-06-22T06:17:08;7.17;;;6.57;;
20476;SDS011;10397;50.948;11.092;2023-06-22T06:19:40;8.15;;;6.80;;
20476;SDS011;10397;50.948;11.092;2023-06-22T06:22:11;11.53;;;7.15;;
20476;SDS011;10397;50.948;11.092;2023-06-22T06:24:42;7.75;;;6.97;;
20476;SDS011;10397;50.948;11.092;2023-06-22T06:27:14;7.20;;;6.60;;
20476;SDS011;10397;50.948;11.092;2023-06-22T06:29:47;7.73;;;6.93;;
20476;SDS011;10397;50.948;11.092;2023-06-22T06:32:19;7.85;;;7.17;;
20476;SDS011;10397;50.948;11.092;2023-06-22T06:34:50;8.35;;;7.17;;
20476;SDS011;10397;50.948;11.092;2023-06-22T06:37:22;7.50;;;6.72;;
20476;SDS011;10397;50.948;11.092;2023-06-22T06:39:53;7.00;;;6.40;;
20476;SDS011;10397;50.948;11.092;2023-06-22T06:42:25;8.33;;;7.28;;
20476;SDS011;10397;50.948;11.092;2023-06-22T06:44:56;8.45;;;7.65;;
20476;SDS011;10397;50.948;11.092;2023-06-22T06:47:28;7.28;;;6.65;;
20476;SDS011;10397;50.948;11.092;2023-06-22T06:49:59;8.50;;;7.65;;
20476;SDS011;10397;50.948;11.092;2023-06-22T06:52:30;12.53;;;8.78;;
20476;SDS011;10397;50.948;11.092;2023-06-22T06:55:01;8.73;;;7.62;;
20476;SDS011;10397;50.948;11.092;2023-06-22T06:57:35;8.33;;;7.53;;
20476;SDS011;10397;50.948;11.092;2023-06-22T07:00:06;9.03;;;8.10;;
20476;SDS011;10397;50.948;11.092;2023-06-22T07:02:37;11.50;;;8.33;;
20476;SDS011;10397;50.948;11.092;2023-06-22T07:05:07;12.65;;;7.72;;
20476;SDS011;10397;50.948;11.092;2023-06-22T07:07:38;11.03;;;9.18;;
20476;SDS011;10397;50.948;11.092;2023-06-22T07:10:09;9.93;;;9.03;;
20476;SDS011;10397;50.948;11.092;2023-06-22T07:12:40;10.95;;;8.55;;
20476;SDS011;10397;50.948;11.092;2023-06-22T07:15:13;15.75;;;8.45;;
20476;SDS011;10397;50.948;11.092;2023-06-22T07:17:43;8.80;;;8.00;;
20476;SDS011;10397;50.948;11.092;2023-06-22T07:20:15;11.05;;;7.22;;
20476;SDS011;10397;50.948;11.092;2023-06-22T07:22:46;10.38;;;9.13;;
20476;SDS011;10397;50.948;11.092;2023-06-22T07:25:18;8.68;;;7.85;;
20476;SDS011;10397;50.948;11.092;2023-06-22T07:27:58;10.93;;;7.70;;
20476;SDS011;10397;50.948;11.092;2023-06-22T07:30:31;11.60;;;9.20;;
20476;SDS011;10397;50.948;11.092;2023-06-22T07:33:02;11.30;;;8.63;;
20476;SDS011;10397;50.948;11.092;2023-06-22T07:35:33;10.70;;;9.07;;
20476;SDS011;10397;50.948;11.092;2023-06-22T07:38:04;10.90;;;7.45;;
20476;SDS011;10397;50.948;11.092;2023-06-22T07:40:36;12.15;;;7.40;;
20476;SDS011;10397;50.948;11.092;2023-06-22T07:43:07;8.93;;;8.15;;
20476;SDS011;10397;50.948;11.092;2023-06-22T07:45:39;8.55;;;7.75;;
20476;SDS011;10397;50.948;11.092;2023-06-22T07:48:10;8.00;;;7.40;;
20476;SDS011;10397;50.948;11.092;2023-06-22T07:50:42;9.55;;;8.58;;
20476;SDS011;10397;50.948;11.092;2023-06-22T07:53:13;9.93;;;8.03;;
20476;SDS011;10397;50.948;11.092;2023-06-22T07:55:45;10.35;;;8.40;;
20476;SDS011;10397;50.948;11.092;2023-06-22T07:58:16;9.40;;;8.55;;
20476;SDS011;10397;50.948;11.092;2023-06-22T08:00:47;9.53;;;8.45;;
20476;SDS011;10397;50.948;11.092;2023-06-22T08:03:19;9.50;;;7.97;;
20476;SDS011;10397;50.948;11.092;2023-06-22T08:05:50;9.00;;;8.20;;
20476;SDS011;10397;50.948;11.092;2023-06-22T08:08:22;7.80;;;7.12;;
20476;SDS011;10397;50.948;11.092;2023-06-22T08:10:53;8.83;;;7.92;;
20476;SDS011;10397;50.948;11.092;2023-06-22T08:13:25;10.68;;;8.35;;
20476;SDS011;10397;50.948;11.092;2023-06-22T08:15:56;9.30;;;7.50;;
20476;SDS011;10397;50.948;11.092;2023-06-22T08:18:28;8.35;;;7.65;;
20476;SDS011;10397;50.948;11.092;2023-06-22T08:20:59;8.10;;;7.40;;
20476;SDS011;10397;50.948;11.092;2023-06-22T08:23:30;8.05;;;7.33;;
20476;SDS011;10397;50.948;11.092;2023-06-22T08:26:02;8.03;;;7.33;;
20476;SDS011;10397;50.948;11.092;2023-06-22T08:28:32;12.67;;;7.30;;
20476;SDS011;10397;50.948;11.092;2023-06-22T08:31:04;8.20;;;6.03;;
20476;SDS011;10397;50.948;11.092;2023-06-22T08:33:35;11.12;;;8.20;;
20476;SDS011;10397;50.948;11.092;2023-06-22T08:36:06;8.35;;;7.12;;
20476;SDS011;10397;50.948;11.092;2023-06-22T08:38:38;8.33;;;7.53;;
20476;SDS011;10397;50.948;11.092;2023-06-22T08:41:09;8.20;;;7.37;;
20476;SDS011;10397;50.948;11.092;2023-06-22T08:43:40;7.70;;;6.65;;
20476;SDS011;10397;50.948;11.092;2023-06-22T08:46:12;8.05;;;7.25;;
20476;SDS011;10397;50.948;11.092;2023-06-22T08:48:43;7.08;;;6.58;;
20476;SDS011;10397;50.948;11.092;2023-06-22T08:51:15;7.78;;;7.10;;
20476;SDS011;10397;50.948;11.092;2023-06-22T08:53:46;8.70;;;6.33;;
20476;SDS011;10397;50.948;11.092;2023-06-22T08:56:17;10.28;;;7.10;;
20476;SDS011;10397;50.948;11.092;2023-06-22T08:58:48;8.90;;;7.50;;
20476;SDS011;10397;50.948;11.092;2023-06-22T09:01:20;8.20;;;7.33;;
20476;SDS011;10397;50.948;11.092;2023-06-22T09:03:51;9.63;;;8.15;;
20476;SDS011;10397;50.948;11.092;2023-06-22T09:06:25;8.43;;;7.83;;
20476;SDS011;10397;50.948;11.092;2023-06-22T09:08:56;9.33;;;8.30;;
20476;SDS011;10397;50.948;11.092;2023-06-22T09:11:29;7.67;;;6.90;;
20476;SDS011;10397;50.948;11.092;2023-06-22T09:14:01;7.90;;;7.10;;
20476;SDS011;10397;50.948;11.092;2023-06-22T09:16:32;7.40;;;6.70;;
20476;SDS011;10397;50.948;11.092;2023-06-22T09:19:03;8.17;;;7.43;;
20476;SDS011;10397;50.948;11.092;2023-06-22T09:21:34;9.27;;;8.27;;
20476;SDS011;10397;50.948;11.092;2023-06-22T09:24:05;8.13;;;7.28;;
20476;SDS011;10397;50.948;11.092;2023-06-22T09:26:36;9.13;;;7.37;;
20476;SDS011;10397;50.948;11.092;2023-06-22T09:29:08;8.23;;;7.62;;
20476;SDS011;10397;50.948;11.092;2023-06-22T09:31:39;10.68;;;8.38;;
20476;SDS011;10397;50.948;11.092;2023-06-22T09:34:10;8.98;;;8.18;;
20476;SDS011;10397;50.948;11.092;2023-06-22T09:36:42;8.55;;;7.95;;
20476;SDS011;10397;50.948;11.092;2023-06-22T09:39:13;7.87;;;7.25;;
20476;SDS011;10397;50.948;11.092;2023-06-22T09:41:45;8.90;;;8.10;;
20476;SDS011;10397;50.948;11.092;2023-06-22T09:44:17;9.50;;;8.53;;
20476;SDS011;10397;50.948;11.092;2023-06-22T09:46:48;10.63;;;8.70;;
20476;SDS011;10397;50.948;11.092;2023-06-22T09:49:20;9.20;;;8.50;;
20476;SDS011;10397;50.948;11.092;2023-06-22T09:51:51;9.30;;;8.50;;
20476;SDS011;10397;50.948;11.092;2023-06-22T09:54:23;10.85;;;9.00;;
20476;SDS011;10397;50.948;11.092;2023-06-22T09:56:54;11.10;;;8.33;;
20476;SDS011;10397;50.948;11.092;2023-06-22T09:59:26;8.25;;;7.50;;
20476;SDS011;10397;50.948;11.092;2023-06-22T10:01:57;7.83;;;7.12;;
20476;SDS011;10397;50.948;11.092;2023-06-22T10:04:29;7.78;;;7.22;;
20476;SDS011;10397;50.948;11.092;2023-06-22T10:07:01;9.08;;;8.30;;
20476;SDS011;10397;50.948;11.092;2023-06-22T10:09:32;8.08;;;7.37;;
20476;SDS011;10397;50.948;11.092;2023-06-22T10:12:04;8.83;;;7.92;;
20476;SDS011;10397;50.948;11.092;2023-06-22T10:14:34;9.00;;;8.10;;
20476;SDS011;10397;50.948;11.092;2023-06-22T10:17:06;8.60;;;7.90;;
20476;SDS011;10397;50.948;11.092;2023-06-22T10:19:37;8.78;;;7.97;;
20476;SDS011;10397;50.948;11.092;2023-06-22T10:22:09;8.10;;;7.45;;
20476;SDS011;10397;50.948;11.092;2023-06-22T10:24:40;7.78;;;7.12;;
20476;SDS011;10397;50.948;11.092;2023-06-22T10:27:12;7.10;;;6.40;;
20476;SDS011;10397;50.948;11.092;2023-06-22T10:29:43;7.80;;;7.07;;
20476;SDS011;10397;50.948;11.092;2023-06-22T10:32:14;8.93;;;7.72;;
20476;SDS011;10397;50.948;11.092;2023-06-22T10:34:46;7.47;;;6.80;;
20476;SDS011;10397;50.948;11.092;2023-06-22T10:37:17;7.37;;;6.67;;
20476;SDS011;10397;50.948;11.092;2023-06-22T10:39:48;7.60;;;6.93;;
20476;SDS011;10397;50.948;11.092;2023-06-22T10:42:20;9.38;;;7.17;;
20476;SDS011;10397;50.948;11.092;2023-06-22T10:44:51;7.15;;;6.55;;
20476;SDS011;10397;50.948;11.092;2023-06-22T10:47:23;11.08;;;6.50;;
20476;SDS011;10397;50.948;11.092;2023-06-22T10:49:55;6.75;;;6.15;;
20476;SDS011;10397;50.948;11.092;2023-06-22T10:52:27;6.65;;;6.15;;
20476;SDS011;10397;50.948;11.092;2023-06-22T10:54:58;7.60;;;6.67;;
20476;SDS011;10397;50.948;11.092;2023-06-22T10:57:29;6.53;;;6.03;;
20476;SDS011;10397;50.948;11.092;2023-06-22T11:00:01;7.25;;;6.42;;
20476;SDS011;10397;50.948;11.092;2023-06-22T11:02:32;9.87;;;6.80;;
20476;SDS011;10397;50.948;11.092;2023-06-22T11:05:03;6.22;;;5.45;;
20476;SDS011;10397;50.948;11.092;2023-06-22T11:07:35;6.30;;;5.80;;
20476;SDS011;10397;50.948;11.092;2023-06-22T11:10:05;6.97;;;6.03;;
20476;SDS011;10397;50.948;11.092;2023-06-22T11:12:36;7.22;;;6.45;;
20476;SDS011;10397;50.948;11.092;2023-06-22T11:15:07;7.73;;;6.47;;
20476;SDS011;10397;50.948;11.092;2023-06-22T11:17:38;8.30;;;6.65;;
20476;SDS011;10397;50.948;11.092;2023-06-22T11:20:10;13.58;;;6.75;;
20476;SDS011;10397;50.948;11.092;2023-06-22T11:22:41;7.17;;;6.50;;
20476;SDS011;10397;50.948;11.092;2023-06-22T11:25:12;6.83;;;6.00;;
20476;SDS011;10397;50.948;11.092;2023-06-22T11:27:44;55.75;;;10.63;;
20476;SDS011;10397;50.948;11.092;2023-06-22T11:30:15;8.33;;;6.25;;
20476;SDS011;10397;50.948;11.092;2023-06-22T11:32:46;7.40;;;6.70;;
20476;SDS011;10397;50.948;11.092;2023-06-22T11:35:18;6.97;;;6.10;;
20476;SDS011;10397;50.948;11.092;2023-06-22T11:37:49;10.30;;;6.45;;
20476;SDS011;10397;50.948;11.092;2023-06-22T11:40:21;6.65;;;5.55;;
20476;SDS011;10397;50.948;11.092;2023-06-22T11:42:52;7.00;;;5.83;;
20476;SDS011;10397;50.948;11.092;2023-06-22T11:45:24;9.03;;;5.67;;
20476;SDS011;10397;50.948;11.092;2023-06-22T11:47:55;7.83;;;5.73;;
20476;SDS011;10397;50.948;11.092;2023-06-22T11:50:27;9.63;;;5.22;;
20476;SDS011;10397;50.948;11.092;2023-06-22T11:52:58;10.67;;;5.97;;
20476;SDS011;10397;50.948;11.092;2023-06-22T11:55:30;10.63;;;5.97;;
20476;SDS011;10397;50.948;11.092;2023-06-22T11:58:01;6.80;;;6.20;;
20476;SDS011;10397;50.948;11.092;2023-06-22T12:00:32;6.67;;;6.00;;
20476;SDS011;10397;50.948;11.092;2023-06-22T12:03:04;6.50;;;6.00;;
20476;SDS011;10397;50.948;11.092;2023-06-22T12:05:35;7.03;;;6.12;;
20476;SDS011;10397;50.948;11.092;2023-06-22T12:08:07;9.60;;;5.67;;
20476;SDS011;10397;50.948;11.092;2023-06-22T12:10:38;6.47;;;5.97;;
20476;SDS011;10397;50.948;11.092;2023-06-22T12:13:10;8.28;;;6.65;;
20476;SDS011;10397;50.948;11.092;2023-06-22T12:15:41;7.47;;;6.73;;
20476;SDS011;10397;50.948;11.092;2023-06-22T12:18:12;6.92;;;5.40;;
20476;SDS011;10397;50.948;11.092;2023-06-22T12:20:44;8.40;;;5.95;;
20476;SDS011;10397;50.948;11.092;2023-06-22T12:23:15;6.60;;;5.90;;
20476;SDS011;10397;50.948;11.092;2023-06-22T12:25:47;6.35;;;5.85;;
20476;SDS011;10397;50.948;11.092;2023-06-22T12:28:18;12.78;;;6.30;;
20476;SDS011;10397;50.948;11.092;2023-06-22T12:30:50;7.10;;;6.40;;
20476;SDS011;10397;50.948;11.092;2023-06-22T12:33:22;6.15;;;5.62;;
20476;SDS011;10397;50.948;11.092;2023-06-22T12:35:54;8.23;;;6.70;;
20476;SDS011;10397;50.948;11.092;2023-06-22T12:38:25;5.63;;;5.13;;
20476;SDS011;10397;50.948;11.092;2023-06-22T12:40:56;6.47;;;5.87;;
20476;SDS011;10397;50.948;11.092;2023-06-22T12:43:28;7.37;;;5.55;;
20476;SDS011;10397;50.948;11.092;2023-06-22T12:46:00;6.67;;;6.00;;
20476;SDS011;10397;50.948;11.092;2023-06-22T12:48:31;7.08;;;6.47;;
20476;SDS011;10397;50.948;11.092;2023-06-22T12:51:03;6.10;;;5.60;;
20476;SDS011;10397;50.948;11.092;2023-06-22T12:53:34;7.43;;;6.17;;
20476;SDS011;10397;50.948;11.092;2023-06-22T12:56:05;5.80;;;5.40;;
20476;SDS011;10397;50.948;11.092;2023-06-22T12:58:37;7.90;;;6.17;;
20476;SDS011;10397;50.948;11.092;2023-06-22T13:01:08;6.57;;;5.97;;
20476;SDS011;10397;50.948;11.092;2023-06-22T13:03:41;6.83;;;6.17;;
20476;SDS011;10397;50.948;11.092;2023-06-22T13:06:11;6.05;;;5.55;;
20476;SDS011;10397;50.948;11.092;2023-06-22T13:08:43;6.10;;;5.47;;
20476;SDS011;10397;50.948;11.092;2023-06-22T13:11:15;7.05;;;5.75;;
20476;SDS011;10397;50.948;11.092;2023-06-22T13:13:47;6.45;;;5.78;;
20476;SDS011;10397;50.948;11.092;2023-06-22T13:16:18;7.17;;;6.47;;
20476;SDS011;10397;50.948;11.092;2023-06-22T13:18:50;7.03;;;6.30;;
20476;SDS011;10397;50.948;11.092;2023-06-22T13:21:21;7.10;;;6.50;;
20476;SDS011;10397;50.948;11.092;2023-06-22T13:23:53;7.05;;;6.35;;
20476;SDS011;10397;50.948;11.092;2023-06-22T13:26:24;6.35;;;5.75;;
20476;SDS011;10397;50.948;11.092;2023-06-22T13:28:56;10.48;;;6.45;;
20476;SDS011;10397;50.948;11.092;2023-06-22T13:31:28;6.58;;;5.72;;
20476;SDS011;10397;50.948;11.092;2023-06-22T13:33:59;6.95;;;6.45;;
20476;SDS011;10397;50.948;11.092;2023-06-22T13:36:31;7.60;;;6.10;;
20476;SDS011;10397;50.948;11.092;2023-06-22T13:39:03;7.30;;;6.05;;
20476;SDS011;10397;50.948;11.092;2023-06-22T13:41:34;6.73;;;6.13;;
20476;SDS011;10397;50.948;11.092;2023-06-22T13:44:05;7.00;;;5.53;;
20476;SDS011;10397;50.948;11.092;2023-06-22T13:46:37;7.05;;;6.35;;
20476;SDS011;10397;50.948;11.092;2023-06-22T13:49:09;6.20;;;5.67;;
20476;SDS011;10397;50.948;11.092;2023-06-22T13:51:40;6.17;;;5.67;;
20476;SDS011;10397;50.948;11.092;2023-06-22T13:54:12;6.40;;;5.87;;
20476;SDS011;10397;50.948;11.092;2023-06-22T13:56:44;9.40;;;6.10;;
20476;SDS011;10397;50.948;11.092;2023-06-22T13:59:15;6.87;;;6.37;;
20476;SDS011;10397;50.948;11.092;2023-06-22T14:01:47;7.17;;;6.28;;
20476;SDS011;10397;50.948;11.092;2023-06-22T14:04:19;7.65;;;6.95;;
20476;SDS011;10397;50.948;11.092;2023-06-22T14:06:50;7.17;;;6.23;;
20476;SDS011;10397;50.948;11.092;2023-06-22T14:09:20;6.93;;;6.23;;
20476;SDS011;10397;50.948;11.092;2023-06-22T14:11:53;6.60;;;6.00;;
20476;SDS011;10397;50.948;11.092;2023-06-22T14:14:23;13.03;;;6.07;;
20476;SDS011;10397;50.948;11.092;2023-06-22T14:16:54;6.42;;;5.83;;
20476;SDS011;10397;50.948;11.092;2023-06-22T14:19:26;6.03;;;5.53;;
20476;SDS011;10397;50.948;11.092;2023-06-22T14:21:57;6.70;;;6.20;;
20476;SDS011;10397;50.948;11.092;2023-06-22T14:24:29;8.93;;;5.92;;
20476;SDS011;10397;50.948;11.092;2023-06-22T14:27:00;7.10;;;5.80;;
20476;SDS011;10397;50.948;11.092;2023-06-22T14:29:31;5.83;;;5.35;;
20476;SDS011;10397;50.948;11.092;2023-06-22T14:32:03;6.65;;;6.05;;
20476;SDS011;10397;50.948;11.092;2023-06-22T14:34:34;6.80;;;5.40;;
20476;SDS011;10397;50.948;11.092;2023-06-22T14:37:08;5.90;;;5.35;;
20476;SDS011;10397;50.948;11.092;2023-06-22T14:39:39;8.17;;;7.00;;
20476;SDS011;10397;50.948;11.092;2023-06-22T14:42:10;12.50;;;6.42;;
20476;SDS011;10397;50.948;11.092;2023-06-22T14:44:41;7.25;;;6.55;;
20476;SDS011;10397;50.948;11.092;2023-06-22T14:47:13;7.00;;;5.67;;
20476;SDS011;10397;50.948;11.092;2023-06-22T14:49:43;8.43;;;5.93;;
20476;SDS011;10397;50.948;11.092;2023-06-22T14:52:15;6.92;;;6.42;;
20476;SDS011;10397;50.948;11.092;2023-06-22T14:54:46;7.12;;;6.53;;
20476;SDS011;10397;50.948;11.092;2023-06-22T14:57:18;9.35;;;6.72;;
20476;SDS011;10397;50.948;11.092;2023-06-22T14:59:49;8.03;;;5.60;;
20476;SDS011;10397;50.948;11.092;2023-06-22T15:02:19;6.97;;;5.67;;